createdAt,value
2023-05-22T00:00:23.474Z,75.33
2023-05-22T00:02:52.631Z,75.60
2023-05-22T00:05:22.617Z,75.70
2023-05-22T00:07:51.195Z,75.69
2023-05-22T00:10:19.496Z,75.57
2023-05-22T00:12:47.770Z,75.62
2023-05-22T00:15:16.124Z,75.80
2023-05-22T00:17:44.557Z,75.89
2023-05-22T00:20:13.517Z,75.41
2023-05-22T00:22:43.159Z,75.46
2023-05-22T00:25:12.371Z,75.57
2023-05-22T00:27:40.656Z,75.29
2023-05-22T00:30:09.854Z,75.58
2023-05-22T00:32:38.265Z,75.64
2023-05-22T00:35:07.685Z,75.42
2023-05-22T00:37:35.906Z,75.35
2023-05-22T00:40:06.746Z,75.38
2023-05-22T00:42:35.062Z,75.34
2023-05-22T00:45:03.327Z,75.46
2023-05-22T00:47:32.371Z,75.41
2023-05-22T00:50:01.844Z,75.36
2023-05-22T00:52:30.410Z,75.46
2023-05-22T00:54:59.715Z,75.27
2023-05-22T00:57:29.360Z,75.16
2023-05-22T00:59:57.707Z,75.18
2023-05-22T01:02:28.178Z,75.42
2023-05-22T01:04:58.136Z,75.15
2023-05-22T01:07:26.593Z,75.15
2023-05-22T01:09:56.254Z,75.30
2023-05-22T01:12:32.275Z,75.13
2023-05-22T01:15:11.782Z,75.02
2023-05-22T01:17:46.337Z,75.18
2023-05-22T01:20:22.482Z,75.42
2023-05-22T01:23:16.233Z,75.44
2023-05-22T01:26:03.916Z,75.64
2023-05-22T01:28:43.734Z,75.20
2023-05-22T01:31:16.978Z,75.19
2023-05-22T01:33:50.075Z,75.15
2023-05-22T01:36:22.554Z,75.05
2023-05-22T01:38:52.106Z,75.03
2023-05-22T01:41:21.360Z,75.06
2023-05-22T01:43:49.883Z,75.04
2023-05-22T01:46:19.669Z,75.31
2023-05-22T01:48:49.348Z,75.28
2023-05-22T01:51:24.988Z,75.32
2023-05-22T01:53:58.462Z,75.55
2023-05-22T01:56:35.338Z,75.38
2023-05-22T01:59:11.665Z,75.35
2023-05-22T02:01:42.711Z,75.38
2023-05-22T02:04:11.586Z,75.34
2023-05-22T02:06:40.734Z,75.41
2023-05-22T02:09:09.974Z,75.38
2023-05-22T02:11:41.378Z,75.28
2023-05-22T02:14:13.696Z,74.92
2023-05-22T02:16:46.896Z,74.65
2023-05-22T02:19:15.726Z,75.21
2023-05-22T02:21:44.637Z,75.29
2023-05-22T02:24:12.893Z,75.02
2023-05-22T02:26:43.489Z,74.84
2023-05-22T02:29:12.980Z,75.05
2023-05-22T02:31:41.405Z,74.90
2023-05-22T02:34:11.162Z,74.90
2023-05-22T02:36:39.836Z,75.21
2023-05-22T02:39:11.824Z,74.93
2023-05-22T02:41:40.614Z,74.70
2023-05-22T02:44:09.204Z,74.92
2023-05-22T02:46:37.582Z,75.03
2023-05-22T02:49:05.923Z,75.00
2023-05-22T02:51:35.830Z,74.66
2023-05-22T02:54:04.358Z,74.60
2023-05-22T02:56:32.736Z,74.71
2023-05-22T02:59:00.984Z,74.83
2023-05-22T03:01:30.629Z,74.92
2023-05-22T03:03:59.105Z,74.80
2023-05-22T03:06:27.352Z,74.73
2023-05-22T03:08:57.165Z,74.47
2023-05-22T03:11:25.708Z,74.43
2023-05-22T03:13:54.199Z,74.47
2023-05-22T03:16:22.503Z,74.83
2023-05-22T03:18:53.503Z,74.51
2023-05-22T03:21:21.904Z,74.41
2023-05-22T03:23:50.136Z,74.47
2023-05-22T03:26:19.724Z,74.47
2023-05-22T03:28:48.267Z,74.63
2023-05-22T03:31:17.901Z,74.60
2023-05-22T03:33:59.735Z,74.72
2023-05-22T03:36:28.716Z,74.51
2023-05-22T03:38:57.834Z,74.48
2023-05-22T03:41:27.482Z,74.32
2023-05-22T03:43:57.322Z,74.23
2023-05-22T03:46:26.574Z,74.18
2023-05-22T03:48:55.001Z,74.21
2023-05-22T03:51:23.241Z,74.45
2023-05-22T03:53:51.512Z,74.38
2023-05-22T03:56:19.982Z,74.34
2023-05-22T03:58:51.408Z,74.33
2023-05-22T04:01:19.886Z,74.41
2023-05-22T04:03:48.144Z,74.55
2023-05-22T04:06:16.456Z,74.34
2023-05-22T04:08:44.889Z,74.39
2023-05-22T04:11:15.719Z,74.32
2023-05-22T04:13:44.015Z,74.25
2023-05-22T04:16:13.805Z,74.43
2023-05-22T04:18:42.036Z,74.18
2023-05-22T04:21:10.473Z,74.00
2023-05-22T04:23:43.300Z,74.04
2023-05-22T04:26:11.786Z,74.23
2023-05-22T04:28:40.450Z,74.36
2023-05-22T04:31:08.802Z,74.18
2023-05-22T04:33:40.097Z,74.04
2023-05-22T04:36:12.292Z,74.29
2023-05-22T04:38:41.494Z,73.96
2023-05-22T04:41:13.512Z,74.05
2023-05-22T04:43:41.855Z,73.87
2023-05-22T04:46:10.220Z,73.94
2023-05-22T04:48:40.520Z,73.92
2023-05-22T04:51:09.654Z,73.88
2023-05-22T04:53:38.762Z,73.88
2023-05-22T04:56:08.099Z,74.11
2023-05-22T04:58:37.923Z,74.14
2023-05-22T05:01:07.419Z,73.86
2023-05-22T05:03:35.916Z,73.85
2023-05-22T05:06:06.027Z,73.93
2023-05-22T05:08:34.345Z,73.90
2023-05-22T05:11:02.606Z,73.85
2023-05-22T05:13:30.964Z,73.96
2023-05-22T05:16:00.776Z,74.11
2023-05-22T05:18:29.309Z,74.07
2023-05-22T05:20:57.766Z,74.22
2023-05-22T05:23:27.394Z,74.15
2023-05-22T05:25:56.934Z,73.67
2023-05-22T05:28:26.512Z,73.85
2023-05-22T05:30:55.922Z,73.74
2023-05-22T05:33:56.696Z,73.62
2023-05-22T05:36:36.762Z,73.35
2023-05-22T05:39:06.745Z,73.26
2023-05-22T05:41:36.645Z,73.53
2023-05-22T05:44:09.962Z,73.62
2023-05-22T05:46:39.300Z,73.39
2023-05-22T05:49:10.191Z,73.57
2023-05-22T05:51:39.960Z,73.40
2023-05-22T05:54:10.991Z,73.34
2023-05-22T05:56:39.915Z,73.28
2023-05-22T05:59:08.272Z,73.32
2023-05-22T06:01:39.898Z,73.28
2023-05-22T06:04:14.222Z,73.03
2023-05-22T06:06:44.405Z,73.12
2023-05-22T06:09:14.186Z,73.12
2023-05-22T06:12:01.530Z,73.35
2023-05-22T06:14:30.717Z,73.06
2023-05-22T06:16:59.133Z,73.45
2023-05-22T06:19:28.332Z,73.06
2023-05-22T06:21:57.069Z,73.09
2023-05-22T06:24:27.490Z,73.17
2023-05-22T06:26:55.956Z,73.06
2023-05-22T06:29:24.280Z,72.95
2023-05-22T06:31:54.536Z,72.88
2023-05-22T06:34:23.835Z,72.70
2023-05-22T06:36:52.843Z,73.24
2023-05-22T06:39:27.159Z,72.93
2023-05-22T06:41:58.258Z,73.23
2023-05-22T06:44:26.816Z,72.88
2023-05-22T06:46:57.370Z,72.97
2023-05-22T06:49:27.203Z,72.96
2023-05-22T06:51:57.142Z,72.81
2023-05-22T06:54:28.677Z,72.82
2023-05-22T06:57:00.507Z,72.70
2023-05-22T06:59:29.539Z,72.63
2023-05-22T07:02:00.871Z,72.54
2023-05-22T07:04:59.338Z,72.73
2023-05-22T07:07:35.384Z,72.55
2023-05-22T07:10:04.316Z,72.34
2023-05-22T07:12:34.260Z,72.55
2023-05-22T07:15:02.565Z,72.66
2023-05-22T07:17:33.069Z,72.81
2023-05-22T07:20:01.393Z,72.56
2023-05-22T07:22:31.185Z,72.58
2023-05-22T07:24:59.600Z,72.25
2023-05-22T07:27:33.971Z,72.40
2023-05-22T07:30:04.001Z,71.97
2023-05-22T07:32:33.605Z,72.29
2023-05-22T07:35:04.832Z,72.33
2023-05-22T07:37:33.584Z,72.26
2023-05-22T07:40:02.154Z,72.50
2023-05-22T07:42:32.040Z,72.60
2023-05-22T07:45:02.491Z,72.46
2023-05-22T07:47:30.893Z,72.37
2023-05-22T07:49:59.197Z,72.51
2023-05-22T07:52:27.601Z,72.22
2023-05-22T07:54:56.114Z,72.13
2023-05-22T07:57:26.596Z,72.38
2023-05-22T07:59:59.302Z,72.44
2023-05-22T08:02:29.000Z,72.61
2023-05-22T08:04:57.432Z,72.42
2023-05-22T08:07:25.852Z,72.27
2023-05-22T08:09:54.164Z,71.76
2023-05-22T08:12:22.432Z,72.13
2023-05-22T08:14:50.702Z,72.14
2023-05-22T08:17:19.152Z,72.49
2023-05-22T08:19:48.963Z,72.13
2023-05-22T08:22:17.801Z,71.80
2023-05-22T08:24:46.042Z,72.06
2023-05-22T08:27:14.271Z,71.51
2023-05-22T08:29:42.566Z,72.15
2023-05-22T08:32:10.822Z,72.75
2023-05-22T08:34:40.304Z,71.98
2023-05-22T08:37:10.661Z,71.76
2023-05-22T08:39:38.892Z,72.36
2023-05-22T08:42:07.585Z,72.06
2023-05-22T08:44:36.029Z,71.64
2023-05-22T08:47:09.951Z,71.34
2023-05-22T08:49:40.149Z,71.45
2023-05-22T08:52:14.519Z,71.56
2023-05-22T08:54:54.061Z,71.43
2023-05-22T08:57:23.145Z,71.29
2023-05-22T08:59:51.880Z,71.79
2023-05-22T09:02:21.175Z,70.77
2023-05-22T09:04:49.389Z,71.44
2023-05-22T09:07:22.139Z,70.93
2023-05-22T09:09:50.873Z,71.29
2023-05-22T09:12:19.147Z,71.11
2023-05-22T09:14:47.409Z,71.16
2023-05-22T09:17:17.114Z,70.98
2023-05-22T09:19:46.385Z,71.00
2023-05-22T09:22:16.763Z,70.90
2023-05-22T09:24:47.075Z,71.47
2023-05-22T09:27:15.501Z,70.82
2023-05-22T09:29:50.804Z,70.67
2023-05-22T09:32:20.992Z,70.93
2023-05-22T09:34:49.496Z,70.77
2023-05-22T09:37:19.234Z,71.24
2023-05-22T09:39:51.507Z,71.01
2023-05-22T09:42:19.977Z,71.22
2023-05-22T09:44:50.158Z,70.52
2023-05-22T09:47:18.449Z,71.25
2023-05-22T09:49:47.175Z,70.42
2023-05-22T09:52:16.576Z,70.12
2023-05-22T09:54:51.054Z,70.54
2023-05-22T09:57:20.711Z,70.10
2023-05-22T09:59:54.270Z,70.60
2023-05-22T10:02:24.141Z,70.26
2023-05-22T10:04:53.423Z,71.13
2023-05-22T10:07:24.128Z,70.21
2023-05-22T10:09:58.099Z,70.04
2023-05-22T10:12:29.825Z,70.00
2023-05-22T10:14:58.591Z,70.02
2023-05-22T10:17:27.740Z,70.05
2023-05-22T10:19:57.449Z,69.68
2023-05-22T10:22:28.741Z,70.48
2023-05-22T10:24:59.800Z,69.89
2023-05-22T10:27:28.101Z,69.13
2023-05-22T10:30:00.870Z,69.91
2023-05-22T10:32:36.931Z,69.31
2023-05-22T10:35:19.363Z,69.66
2023-05-22T10:37:52.182Z,69.55
2023-05-22T10:40:29.007Z,69.33
2023-05-22T10:43:00.992Z,69.13
2023-05-22T10:45:30.112Z,69.12
2023-05-22T10:48:05.612Z,69.78
2023-05-22T10:50:34.875Z,69.29
2023-05-22T10:53:23.522Z,69.26
2023-05-22T10:55:54.422Z,68.02
2023-05-22T10:58:27.833Z,68.36
2023-05-22T11:01:15.956Z,67.95
2023-05-22T11:03:54.497Z,67.50
2023-05-22T11:06:36.376Z,66.72
2023-05-22T11:09:21.829Z,66.13
2023-05-22T11:12:18.271Z,66.36
2023-05-22T11:14:54.097Z,67.48
2023-05-22T11:17:24.308Z,67.18
2023-05-22T11:20:00.585Z,66.25
2023-05-22T11:22:33.438Z,66.46
2023-05-22T11:25:06.185Z,66.62
2023-05-22T11:27:36.490Z,67.31
2023-05-22T11:30:06.700Z,67.04
2023-05-22T11:32:37.235Z,67.47
2023-05-22T11:35:08.375Z,66.55
2023-05-22T11:37:40.086Z,67.33
2023-05-22T11:40:09.642Z,66.83
2023-05-22T11:42:39.419Z,67.21
2023-05-22T11:45:08.604Z,67.78
2023-05-22T11:47:37.437Z,67.48
2023-05-22T11:50:07.208Z,66.92
2023-05-22T11:52:37.108Z,65.88
2023-05-22T11:55:06.474Z,66.36
2023-05-22T11:57:35.424Z,65.72
2023-05-22T12:00:06.613Z,66.98
2023-05-22T12:02:46.022Z,66.45
2023-05-22T12:05:15.931Z,67.04
2023-05-22T12:07:44.642Z,67.51
2023-05-22T12:10:14.865Z,66.20
2023-05-22T12:12:44.512Z,66.27
2023-05-22T12:15:15.276Z,66.73
2023-05-22T12:17:44.255Z,65.42
2023-05-22T12:20:14.552Z,66.42
2023-05-22T12:22:44.116Z,64.45
2023-05-22T12:25:17.210Z,64.81
2023-05-22T12:27:46.293Z,63.90
2023-05-22T12:30:16.959Z,64.60
2023-05-22T12:32:49.735Z,64.37
2023-05-22T12:35:18.350Z,65.01
2023-05-22T12:37:50.703Z,64.19
2023-05-22T12:40:19.320Z,65.32
2023-05-22T12:42:48.809Z,65.10
2023-05-22T12:45:18.877Z,65.14
2023-05-22T12:47:47.368Z,65.59
2023-05-22T12:50:15.773Z,66.51
2023-05-22T12:52:44.029Z,65.30
2023-05-22T12:55:12.751Z,64.17
2023-05-22T12:57:41.005Z,65.82
2023-05-22T13:00:10.141Z,65.52
2023-05-22T13:02:39.909Z,66.48
2023-05-22T13:05:08.950Z,66.30
2023-05-22T13:07:37.918Z,65.93
2023-05-22T13:10:06.959Z,65.66
2023-05-22T13:12:35.298Z,66.33
2023-05-22T13:15:03.682Z,67.24
2023-05-22T13:17:33.985Z,66.21
2023-05-22T13:20:04.459Z,67.40
2023-05-22T13:22:32.779Z,66.62
2023-05-22T13:25:01.124Z,66.33
2023-05-22T13:27:31.940Z,65.96
2023-05-22T13:30:02.048Z,66.30
2023-05-22T13:32:30.722Z,66.15
2023-05-22T13:34:58.961Z,64.88
2023-05-22T13:37:28.619Z,66.17
2023-05-22T13:39:56.913Z,66.40
2023-05-22T13:42:25.281Z,66.53
2023-05-22T13:44:53.588Z,66.51
2023-05-22T13:47:23.002Z,65.73
2023-05-22T13:49:51.762Z,66.37
2023-05-22T13:52:20.116Z,65.88
2023-05-22T13:54:50.264Z,66.00
2023-05-22T13:57:18.632Z,65.08
2023-05-22T13:59:46.949Z,65.56
2023-05-22T14:02:15.428Z,66.07
2023-05-22T14:04:43.818Z,65.92
2023-05-22T14:07:12.122Z,66.46
2023-05-22T14:09:40.417Z,66.29
2023-05-22T14:12:10.171Z,66.36
2023-05-22T14:14:38.484Z,66.29
2023-05-22T14:17:08.264Z,66.03
2023-05-22T14:19:36.851Z,65.45
2023-05-22T14:22:05.546Z,65.20
2023-05-22T14:24:33.864Z,65.34
2023-05-22T14:27:02.130Z,65.24
2023-05-22T14:29:32.515Z,65.09
2023-05-22T14:32:04.976Z,65.56
2023-05-22T14:34:33.373Z,66.05
2023-05-22T14:37:01.683Z,66.87
2023-05-22T14:39:30.050Z,66.33
2023-05-22T14:41:58.605Z,65.62
2023-05-22T14:44:26.943Z,67.31
2023-05-22T14:46:56.567Z,68.00
2023-05-22T14:49:24.954Z,67.20
2023-05-22T14:51:53.298Z,67.50
2023-05-22T14:54:23.693Z,67.14
2023-05-22T14:56:51.993Z,66.91
2023-05-22T14:59:20.216Z,65.95
2023-05-22T15:01:50.493Z,66.86
2023-05-22T15:04:20.772Z,65.64
2023-05-22T15:06:49.388Z,66.26
2023-05-22T15:09:17.653Z,66.40
2023-05-22T15:11:49.125Z,66.53
2023-05-22T15:14:17.615Z,66.72
2023-05-22T15:16:46.989Z,67.25
2023-05-22T15:19:15.334Z,67.37
2023-05-22T15:21:45.048Z,65.55
2023-05-22T15:24:13.353Z,66.14
2023-05-22T15:26:41.592Z,66.52
2023-05-22T15:29:09.909Z,65.64
2023-05-22T15:31:38.558Z,67.61
2023-05-22T15:34:06.871Z,66.49
2023-05-22T15:36:37.140Z,66.76
2023-05-22T15:39:07.245Z,67.22
2023-05-22T15:41:35.508Z,67.13
2023-05-22T15:44:03.731Z,66.73
2023-05-22T15:46:32.338Z,66.83
2023-05-22T15:49:00.626Z,65.56
2023-05-22T15:51:28.867Z,66.17
2023-05-22T15:53:58.024Z,65.24
2023-05-22T15:56:27.744Z,64.54
2023-05-22T15:58:56.236Z,64.23
2023-05-22T16:01:25.207Z,65.13
2023-05-22T16:03:53.653Z,64.50
2023-05-22T16:06:23.296Z,64.87
2023-05-22T16:08:51.544Z,64.35
2023-05-22T16:11:19.847Z,64.13
2023-05-22T16:13:50.155Z,64.88
2023-05-22T16:16:18.493Z,66.18
2023-05-22T16:18:49.844Z,65.68
2023-05-22T16:21:18.131Z,65.50
2023-05-22T16:23:46.402Z,65.66
2023-05-22T16:26:17.934Z,65.73
2023-05-22T16:28:46.327Z,66.04
2023-05-22T16:31:19.270Z,66.50
2023-05-22T16:33:47.791Z,66.75
2023-05-22T16:36:16.076Z,65.72
2023-05-22T16:38:44.424Z,66.40
2023-05-22T16:41:12.781Z,65.59
2023-05-22T16:43:41.051Z,63.79
2023-05-22T16:46:09.274Z,62.89
2023-05-22T16:48:39.005Z,63.44
2023-05-22T16:51:07.424Z,62.47
2023-05-22T16:53:37.396Z,62.76
2023-05-22T16:56:06.993Z,60.57
2023-05-22T16:58:35.634Z,60.12
2023-05-22T17:01:06.319Z,60.64
2023-05-22T17:03:35.482Z,61.60
2023-05-22T17:06:05.889Z,61.51
2023-05-22T17:08:34.151Z,62.15
2023-05-22T17:11:02.465Z,64.10
2023-05-22T17:13:31.033Z,63.82
2023-05-22T17:15:59.439Z,62.69
2023-05-22T17:18:27.780Z,62.82
2023-05-22T17:20:56.070Z,62.92
2023-05-22T17:23:25.930Z,62.41
2023-05-22T17:26:07.824Z,62.73
2023-05-22T17:28:36.418Z,62.67
2023-05-22T17:31:04.654Z,61.85
2023-05-22T17:33:33.514Z,63.08
2023-05-22T17:36:01.885Z,64.02
2023-05-22T17:38:31.543Z,64.93
2023-05-22T17:41:00.842Z,66.19
2023-05-22T17:43:29.444Z,65.89
2023-05-22T17:45:58.450Z,65.54
2023-05-22T17:48:27.199Z,65.85
2023-05-22T17:50:55.912Z,66.02
2023-05-22T17:53:24.206Z,65.98
2023-05-22T17:55:54.047Z,66.32
2023-05-22T17:58:22.570Z,66.60
2023-05-22T18:00:50.935Z,66.36
2023-05-22T18:03:20.834Z,67.00
2023-05-22T18:05:49.471Z,67.07
2023-05-22T18:08:17.906Z,67.17
2023-05-22T18:10:46.158Z,67.07
2023-05-22T18:13:16.088Z,67.18
2023-05-22T18:15:44.454Z,67.63
2023-05-22T18:18:13.192Z,67.78
2023-05-22T18:20:41.759Z,68.05
2023-05-22T18:23:10.304Z,68.21
2023-05-22T18:25:38.576Z,68.13
2023-05-22T18:28:08.247Z,68.28
2023-05-22T18:30:38.184Z,68.37
2023-05-22T18:33:06.813Z,68.97
2023-05-22T18:35:35.069Z,68.84
2023-05-22T18:38:03.695Z,69.00
2023-05-22T18:40:32.099Z,68.77
2023-05-22T18:43:03.022Z,69.25
2023-05-22T18:45:31.337Z,69.76
2023-05-22T18:48:01.042Z,69.30
2023-05-22T18:50:29.573Z,69.46
2023-05-22T18:52:57.910Z,69.69
2023-05-22T18:55:26.375Z,69.72
2023-05-22T18:57:54.733Z,69.65
2023-05-22T19:00:23.110Z,69.71
2023-05-22T19:02:51.464Z,69.89
2023-05-22T19:05:21.468Z,70.06
2023-05-22T19:07:49.934Z,70.10
2023-05-22T19:10:18.269Z,70.52
2023-05-22T19:12:46.513Z,70.43
2023-05-22T19:15:14.871Z,70.35
2023-05-22T19:17:43.274Z,70.59
2023-05-22T19:20:12.332Z,70.75
2023-05-22T19:22:42.157Z,70.83
2023-05-22T19:25:11.109Z,70.92
2023-05-22T19:27:39.612Z,71.06
2023-05-22T19:30:09.097Z,71.02
2023-05-22T19:32:37.569Z,71.32
2023-05-22T19:35:06.661Z,71.26
2023-05-22T19:37:34.973Z,71.51
2023-05-22T19:40:06.246Z,71.47
2023-05-22T19:42:34.743Z,71.28
2023-05-22T19:45:03.488Z,71.56
2023-05-22T19:47:32.265Z,71.44
2023-05-22T19:50:00.597Z,71.46
2023-05-22T19:52:29.030Z,71.33
2023-05-22T19:54:57.421Z,71.46
2023-05-22T19:57:27.199Z,71.66
2023-05-22T19:59:55.724Z,71.63
2023-05-22T20:02:24.136Z,71.48
2023-05-22T20:04:55.027Z,71.58
2023-05-22T20:07:23.414Z,71.68
2023-05-22T20:09:51.782Z,71.70
2023-05-22T20:12:20.071Z,71.58
2023-05-22T20:14:49.974Z,72.03
2023-05-22T20:17:22.386Z,71.87
2023-05-22T20:19:50.932Z,71.96
2023-05-22T20:22:19.248Z,71.91
2023-05-22T20:24:48.315Z,71.84
2023-05-22T20:27:16.827Z,71.74
2023-05-22T20:29:45.262Z,71.83
2023-05-22T20:32:14.960Z,71.69
2023-05-22T20:34:45.168Z,71.73
2023-05-22T20:37:13.842Z,71.66
2023-05-22T20:39:42.795Z,72.01
2023-05-22T20:42:13.044Z,71.92
2023-05-22T20:44:42.013Z,71.96
2023-05-22T20:47:10.866Z,71.88
2023-05-22T20:49:41.266Z,71.80
2023-05-22T20:52:10.186Z,71.87
2023-05-22T20:54:38.432Z,71.64
2023-05-22T20:57:07.060Z,72.04
2023-05-22T20:59:37.478Z,72.24
2023-05-22T21:02:06.078Z,72.06
2023-05-22T21:04:34.315Z,72.17
2023-05-22T21:07:04.937Z,72.06
2023-05-22T21:09:33.262Z,72.17
2023-05-22T21:12:01.546Z,72.45
2023-05-22T21:14:29.790Z,72.29
2023-05-22T21:16:58.077Z,72.37
2023-05-22T21:19:26.783Z,72.17
2023-05-22T21:21:55.066Z,72.35
2023-05-22T21:24:24.651Z,72.13
2023-05-22T21:26:52.928Z,72.32
2023-05-22T21:29:21.219Z,72.63
2023-05-22T21:31:49.579Z,72.54
2023-05-22T21:34:17.895Z,72.94
2023-05-22T21:36:46.123Z,72.79
2023-05-22T21:39:14.514Z,72.50
2023-05-22T21:41:44.134Z,72.87
2023-05-22T21:44:12.374Z,72.96
2023-05-22T21:46:40.659Z,73.45
2023-05-22T21:49:09.747Z,73.59
2023-05-22T21:51:38.417Z,73.56
2023-05-22T21:54:06.837Z,73.43
2023-05-22T21:56:35.063Z,73.50
2023-05-22T21:59:05.889Z,73.38
2023-05-22T22:01:34.354Z,73.59
2023-05-22T22:04:02.689Z,73.50
2023-05-22T22:06:31.318Z,73.49
2023-05-22T22:09:00.664Z,73.62
2023-05-22T22:11:28.966Z,73.53
2023-05-22T22:13:57.251Z,73.82
2023-05-22T22:16:28.039Z,73.86
2023-05-22T22:18:58.121Z,73.83
2023-05-22T22:21:26.492Z,73.81
2023-05-22T22:23:54.822Z,73.63
2023-05-22T22:26:23.071Z,73.73
2023-05-22T22:28:51.379Z,73.96
2023-05-22T22:31:19.649Z,73.81
2023-05-22T22:33:49.275Z,74.09
2023-05-22T22:36:17.760Z,74.04
2023-05-22T22:38:46.021Z,74.01
2023-05-22T22:41:14.243Z,74.35
2023-05-22T22:43:42.498Z,74.15
2023-05-22T22:46:10.792Z,74.11
2023-05-22T22:48:41.702Z,74.26
2023-05-22T22:51:11.595Z,74.38
2023-05-22T22:53:40.214Z,74.31
2023-05-22T22:56:08.643Z,74.39
2023-05-22T22:58:36.938Z,74.11
2023-05-22T23:01:05.573Z,74.11
2023-05-22T23:03:35.461Z,73.76
2023-05-22T23:06:03.968Z,73.83
2023-05-22T23:08:33.620Z,73.56
2023-05-22T23:11:01.870Z,73.88
2023-05-22T23:13:30.153Z,74.05
2023-05-22T23:15:58.470Z,74.00
2023-05-22T23:18:26.729Z,74.12
2023-05-22T23:20:54.989Z,73.61
2023-05-22T23:23:23.272Z,73.67
2023-05-22T23:25:53.058Z,73.45
2023-05-22T23:28:21.318Z,72.95
2023-05-22T23:30:49.630Z,72.93
2023-05-22T23:33:17.855Z,73.06
2023-05-22T23:35:46.142Z,72.96
2023-05-22T23:38:14.474Z,72.79
2023-05-22T23:40:42.698Z,72.80
2023-05-22T23:43:12.297Z,72.34
2023-05-22T23:45:40.789Z,72.42
2023-05-22T23:48:09.201Z,72.24
2023-05-22T23:50:37.583Z,71.96
2023-05-22T23:53:05.897Z,71.98
2023-05-22T23:55:34.154Z,71.96
2023-05-22T23:58:02.387Z,72.00
